sensor_id;sensor_type;location;lat;lon;timestamp;P1;P2;P0
54587;PMS7003;40484;50.198;19.576;2023-03-14T00:02:00;3;3;2
54587;PMS7003;40484;50.198;19.576;2023-03-14T00:07:02;3;3;2
54587;PMS7003;40484;50.198;19.576;2023-03-14T00:12:04;3;3;2
54587;PMS7003;40484;50.198;19.576;2023-03-14T00:17:07;2;2;2
54587;PMS7003;40484;50.198;19.576;2023-03-14T00:22:37;2;2;2
54587;PMS7003;40484;50.198;19.576;2023-03-14T00:27:40;3;2;2
54587;PMS7003;40484;50.198;19.576;2023-03-14T00:32:41;1;1;1
54587;PMS7003;40484;50.198;19.576;2023-03-14T00:37:44;2;2;2
54587;PMS7003;40484;50.198;19.576;2023-03-14T00:42:45;4;4;3
54587;PMS7003;40484;50.198;19.576;2023-03-14T00:47:47;1;1;1
54587;PMS7003;40484;50.198;19.576;2023-03-14T00:52:48;2;2;2
54587;PMS7003;40484;50.198;19.576;2023-03-14T00:57:50;3;3;3
54587;PMS7003;40484;50.198;19.576;2023-03-14T01:02:52;3;3;2
54587;PMS7003;40484;50.198;19.576;2023-03-14T01:07:53;3;3;2
54587;PMS7003;40484;50.198;19.576;2023-03-14T01:12:55;2;2;2
54587;PMS7003;40484;50.198;19.576;2023-03-14T01:17:56;2;1;1
54587;PMS7003;40484;50.198;19.576;2023-03-14T01:22:58;2;2;2
54587;PMS7003;40484;50.198;19.576;2023-03-14T01:27:59;2;2;2
54587;PMS7003;40484;50.198;19.576;2023-03-14T01:33:01;5;5;3
54587;PMS7003;40484;50.198;19.576;2023-03-14T01:38:03;5;5;4
54587;PMS7003;40484;50.198;19.576;2023-03-14T01:43:22;4;4;3
54587;PMS7003;40484;50.198;19.576;2023-03-14T01:48:16;5;5;4
54587;PMS7003;40484;50.198;19.576;2023-03-14T01:53:18;4;4;4
54587;PMS7003;40484;50.198;19.576;2023-03-14T01:58:49;5;5;5
54587;PMS7003;40484;50.198;19.576;2023-03-14T02:03:56;2;2;2
54587;PMS7003;40484;50.198;19.576;2023-03-14T02:09:00;4;4;4
54587;PMS7003;40484;50.198;19.576;2023-03-14T02:14:02;5;5;4
54587;PMS7003;40484;50.198;19.576;2023-03-14T02:19:04;3;3;2
54587;PMS7003;40484;50.198;19.576;2023-03-14T02:24:09;3;3;3
54587;PMS7003;40484;50.198;19.576;2023-03-14T02:29:11;4;4;3
54587;PMS7003;40484;50.198;19.576;2023-03-14T02:34:13;3;3;2
54587;PMS7003;40484;50.198;19.576;2023-03-14T02:39:15;2;2;2
54587;PMS7003;40484;50.198;19.576;2023-03-14T02:44:18;3;3;3
54587;PMS7003;40484;50.198;19.576;2023-03-14T02:49:19;3;3;3
54587;PMS7003;40484;50.198;19.576;2023-03-14T02:54:21;5;5;4
54587;PMS7003;40484;50.198;19.576;2023-03-14T02:59:23;4;4;3
54587;PMS7003;40484;50.198;19.576;2023-03-14T03:04:24;4;4;3
54587;PMS7003;40484;50.198;19.576;2023-03-14T03:09:26;3;3;3
54587;PMS7003;40484;50.198;19.576;2023-03-14T03:14:27;4;4;4
54587;PMS7003;40484;50.198;19.576;2023-03-14T03:19:29;5;5;3
54587;PMS7003;40484;50.198;19.576;2023-03-14T03:24:31;7;7;5
54587;PMS7003;40484;50.198;19.576;2023-03-14T03:29:33;5;5;5
54587;PMS7003;40484;50.198;19.576;2023-03-14T03:35:02;24;23;15
54587;PMS7003;40484;50.198;19.576;2023-03-14T03:40:05;29;23;15
54587;PMS7003;40484;50.198;19.576;2023-03-14T03:45:08;30;29;17
54587;PMS7003;40484;50.198;19.576;2023-03-14T03:50:10;32;30;18
54587;PMS7003;40484;50.198;19.576;2023-03-14T03:55:11;23;21;13
54587;PMS7003;40484;50.198;19.576;2023-03-14T04:00:13;23;18;13
54587;PMS7003;40484;50.198;19.576;2023-03-14T04:05:15;19;18;12
54587;PMS7003;40484;50.198;19.576;2023-03-14T04:10:16;41;33;20
54587;PMS7003;40484;50.198;19.576;2023-03-14T04:15:18;19;18;12
54587;PMS7003;40484;50.198;19.576;2023-03-14T04:20:20;7;6;6
54587;PMS7003;40484;50.198;19.576;2023-03-14T04:25:21;10;7;5
54587;PMS7003;40484;50.198;19.576;2023-03-14T04:30:23;6;6;5
54587;PMS7003;40484;50.198;19.576;2023-03-14T04:35:24;9;7;5
54587;PMS7003;40484;50.198;19.576;2023-03-14T04:40:26;4;4;3
54587;PMS7003;40484;50.198;19.576;2023-03-14T04:45:27;4;4;3
54587;PMS7003;40484;50.198;19.576;2023-03-14T04:50:29;12;9;7
54587;PMS7003;40484;50.198;19.576;2023-03-14T04:55:31;7;7;6
54587;PMS7003;40484;50.198;19.576;2023-03-14T05:00:33;12;9;7
54587;PMS7003;40484;50.198;19.576;2023-03-14T05:05:34;8;8;7
54587;PMS7003;40484;50.198;19.576;2023-03-14T05:10:36;4;4;4
54587;PMS7003;40484;50.198;19.576;2023-03-14T05:15:39;7;7;5
54587;PMS7003;40484;50.198;19.576;2023-03-14T05:21:05;7;6;4
54587;PMS7003;40484;50.198;19.576;2023-03-14T05:26:07;7;7;6
54587;PMS7003;40484;50.198;19.576;2023-03-14T05:31:08;5;5;4
54587;PMS7003;40484;50.198;19.576;2023-03-14T05:36:10;9;9;6
54587;PMS7003;40484;50.198;19.576;2023-03-14T05:41:12;7;7;6
54587;PMS7003;40484;50.198;19.576;2023-03-14T05:46:13;10;7;5
54587;PMS7003;40484;50.198;19.576;2023-03-14T05:51:15;4;4;3
54587;PMS7003;40484;50.198;19.576;2023-03-14T05:56:17;7;7;5
54587;PMS7003;40484;50.198;19.576;2023-03-14T06:01:18;6;6;5
54587;PMS7003;40484;50.198;19.576;2023-03-14T06:06:20;7;7;6
54587;PMS7003;40484;50.198;19.576;2023-03-14T06:11:21;8;8;6
54587;PMS7003;40484;50.198;19.576;2023-03-14T06:16:23;9;9;6
54587;PMS7003;40484;50.198;19.576;2023-03-14T06:21:24;6;6;5
54587;PMS7003;40484;50.198;19.576;2023-03-14T06:26:26;3;3;2
54587;PMS7003;40484;50.198;19.576;2023-03-14T06:31:29;4;4;3
54587;PMS7003;40484;50.198;19.576;2023-03-14T06:36:31;4;4;3
54587;PMS7003;40484;50.198;19.576;2023-03-14T06:41:33;8;5;4
54587;PMS7003;40484;50.198;19.576;2023-03-14T06:46:34;5;5;4
54587;PMS7003;40484;50.198;19.576;2023-03-14T06:51:36;12;11;8
54587;PMS7003;40484;50.198;19.576;2023-03-14T06:56:38;9;8;7
54587;PMS7003;40484;50.198;19.576;2023-03-14T07:01:39;13;12;10
54587;PMS7003;40484;50.198;19.576;2023-03-14T07:06:41;6;6;5
54587;PMS7003;40484;50.198;19.576;2023-03-14T07:12:09;13;10;8
54587;PMS7003;40484;50.198;19.576;2023-03-14T07:17:10;6;6;6
54587;PMS7003;40484;50.198;19.576;2023-03-14T07:22:12;6;5;5
54587;PMS7003;40484;50.198;19.576;2023-03-14T07:27:13;5;5;5
54587;PMS7003;40484;50.198;19.576;2023-03-14T07:32:16;7;6;5
54587;PMS7003;40484;50.198;19.576;2023-03-14T07:37:17;7;7;6
54587;PMS7003;40484;50.198;19.576;2023-03-14T07:42:19;6;6;5
54587;PMS7003;40484;50.198;19.576;2023-03-14T07:47:20;7;7;6
54587;PMS7003;40484;50.198;19.576;2023-03-14T07:52:22;8;8;6
54587;PMS7003;40484;50.198;19.576;2023-03-14T07:57:24;5;5;5
54587;PMS7003;40484;50.198;19.576;2023-03-14T08:02:26;6;6;5
54587;PMS7003;40484;50.198;19.576;2023-03-14T08:07:28;7;6;5
54587;PMS7003;40484;50.198;19.576;2023-03-14T08:12:29;6;6;4
54587;PMS7003;40484;50.198;19.576;2023-03-14T08:17:32;6;5;4
54587;PMS7003;40484;50.198;19.576;2023-03-14T08:22:33;6;6;5
54587;PMS7003;40484;50.198;19.576;2023-03-14T08:27:35;8;8;7
54587;PMS7003;40484;50.198;19.576;2023-03-14T08:32:39;7;7;6
54587;PMS7003;40484;50.198;19.576;2023-03-14T08:37:40;5;5;5
54587;PMS7003;40484;50.198;19.576;2023-03-14T08:42:42;7;7;6
54587;PMS7003;40484;50.198;19.576;2023-03-14T08:47:44;6;6;6
54587;PMS7003;40484;50.198;19.576;2023-03-14T08:52:46;8;7;7
54587;PMS7003;40484;50.198;19.576;2023-03-14T08:58:13;7;6;5
54587;PMS7003;40484;50.198;19.576;2023-03-14T09:03:14;6;4;4
54587;PMS7003;40484;50.198;19.576;2023-03-14T09:08:16;9;9;8
54587;PMS7003;40484;50.198;19.576;2023-03-14T09:13:17;8;7;6
54587;PMS7003;40484;50.198;19.576;2023-03-14T09:18:19;5;5;4
54587;PMS7003;40484;50.198;19.576;2023-03-14T09:23:20;6;6;5
54587;PMS7003;40484;50.198;19.576;2023-03-14T09:28:22;7;6;5
54587;PMS7003;40484;50.198;19.576;2023-03-14T09:33:24;6;6;5
54587;PMS7003;40484;50.198;19.576;2023-03-14T09:38:26;11;10;8
54587;PMS7003;40484;50.198;19.576;2023-03-14T09:43:31;4;4;4
54587;PMS7003;40484;50.198;19.576;2023-03-14T09:48:32;6;6;5
54587;PMS7003;40484;50.198;19.576;2023-03-14T09:53:49;7;7;6
54587;PMS7003;40484;50.198;19.576;2023-03-14T09:58:53;8;7;6
54587;PMS7003;40484;50.198;19.576;2023-03-14T10:03:57;8;8;7
54587;PMS7003;40484;50.198;19.576;2023-03-14T10:08:59;8;7;6
54587;PMS7003;40484;50.198;19.576;2023-03-14T10:14:04;9;9;8
54587;PMS7003;40484;50.198;19.576;2023-03-14T10:19:06;7;7;6
54587;PMS7003;40484;50.198;19.576;2023-03-14T10:24:34;9;8;7
54587;PMS7003;40484;50.198;19.576;2023-03-14T10:29:51;8;7;5
54587;PMS7003;40484;50.198;19.576;2023-03-14T10:34:39;8;8;6
54587;PMS7003;40484;50.198;19.576;2023-03-14T10:39:47;10;9;8
54587;PMS7003;40484;50.198;19.576;2023-03-14T10:44:53;8;7;6
54587;PMS7003;40484;50.198;19.576;2023-03-14T10:49:56;6;6;5
54587;PMS7003;40484;50.198;19.576;2023-03-14T10:55:01;10;7;6
54587;PMS7003;40484;50.198;19.576;2023-03-14T11:00:03;9;9;8
54587;PMS7003;40484;50.198;19.576;2023-03-14T11:10:38;11;7;7
54587;PMS7003;40484;50.198;19.576;2023-03-14T11:15:45;8;7;6
54587;PMS7003;40484;50.198;19.576;2023-03-14T11:31:29;9;9;7
54587;PMS7003;40484;50.198;19.576;2023-03-14T11:36:39;9;7;7
54587;PMS7003;40484;50.198;19.576;2023-03-14T11:41:54;6;6;5
54587;PMS7003;40484;50.198;19.576;2023-03-14T11:52:20;6;6;5
54587;PMS7003;40484;50.198;19.576;2023-03-14T11:57:22;6;6;6
54587;PMS7003;40484;50.198;19.576;2023-03-14T12:02:45;7;7;5
54587;PMS7003;40484;50.198;19.576;2023-03-14T12:13:33;10;10;7
54587;PMS7003;40484;50.198;19.576;2023-03-14T12:18:36;3;3;3
54587;PMS7003;40484;50.198;19.576;2023-03-14T12:23:43;8;6;5
54587;PMS7003;40484;50.198;19.576;2023-03-14T12:44:38;11;11;10
54587;PMS7003;40484;50.198;19.576;2023-03-14T12:49:41;16;16;11
54587;PMS7003;40484;50.198;19.576;2023-03-14T12:54:50;7;6;5
54587;PMS7003;40484;50.198;19.576;2023-03-14T12:59:55;8;7;6
54587;PMS7003;40484;50.198;19.576;2023-03-14T13:05:23;7;6;5
54587;PMS7003;40484;50.198;19.576;2023-03-14T13:10:27;9;8;7
54587;PMS7003;40484;50.198;19.576;2023-03-14T13:15:34;9;8;7
54587;PMS7003;40484;50.198;19.576;2023-03-14T13:20:37;8;7;6
54587;PMS7003;40484;50.198;19.576;2023-03-14T13:25:39;13;12;8
54587;PMS7003;40484;50.198;19.576;2023-03-14T13:30:42;7;7;6
54587;PMS7003;40484;50.198;19.576;2023-03-14T13:35:46;8;7;6
54587;PMS7003;40484;50.198;19.576;2023-03-14T13:40:48;11;10;8
54587;PMS7003;40484;50.198;19.576;2023-03-14T13:45:55;18;17;13
54587;PMS7003;40484;50.198;19.576;2023-03-14T13:51:02;22;20;15
54587;PMS7003;40484;50.198;19.576;2023-03-14T13:56:04;29;28;18
54587;PMS7003;40484;50.198;19.576;2023-03-14T14:01:12;32;27;18
54587;PMS7003;40484;50.198;19.576;2023-03-14T14:06:33;27;24;16
54587;PMS7003;40484;50.198;19.576;2023-03-14T14:12:06;25;25;16
54587;PMS7003;40484;50.198;19.576;2023-03-14T14:17:10;17;17;13
54587;PMS7003;40484;50.198;19.576;2023-03-14T14:22:15;24;23;14
54587;PMS7003;40484;50.198;19.576;2023-03-14T14:27:27;16;16;10
54587;PMS7003;40484;50.198;19.576;2023-03-14T14:32:39;14;13;11
54587;PMS7003;40484;50.198;19.576;2023-03-14T14:40:29;17;14;10
54587;PMS7003;40484;50.198;19.576;2023-03-14T14:45:33;13;12;8
54587;PMS7003;40484;50.198;19.576;2023-03-14T14:56:24;16;14;11
54587;PMS7003;40484;50.198;19.576;2023-03-14T15:01:23;18;16;11
54587;PMS7003;40484;50.198;19.576;2023-03-14T15:06:30;5;5;3
54587;PMS7003;40484;50.198;19.576;2023-03-14T15:11:32;20;20;13
54587;PMS7003;40484;50.198;19.576;2023-03-14T15:16:34;16;15;10
54587;PMS7003;40484;50.198;19.576;2023-03-14T15:21:35;26;20;13
54587;PMS7003;40484;50.198;19.576;2023-03-14T15:26:37;15;14;11
54587;PMS7003;40484;50.198;19.576;2023-03-14T15:31:40;12;11;8
54587;PMS7003;40484;50.198;19.576;2023-03-14T15:37:12;43;33;20
54587;PMS7003;40484;50.198;19.576;2023-03-14T15:42:16;50;40;21
54587;PMS7003;40484;50.198;19.576;2023-03-14T15:47:18;36;32;20
54587;PMS7003;40484;50.198;19.576;2023-03-14T15:52:19;28;27;16
54587;PMS7003;40484;50.198;19.576;2023-03-14T15:57:21;52;42;27
54587;PMS7003;40484;50.198;19.576;2023-03-14T16:02:23;44;36;22
54587;PMS7003;40484;50.198;19.576;2023-03-14T16:07:24;33;31;22
54587;PMS7003;40484;50.198;19.576;2023-03-14T16:12:26;29;28;17
54587;PMS7003;40484;50.198;19.576;2023-03-14T16:17:27;29;26;16
54587;PMS7003;40484;50.198;19.576;2023-03-14T16:22:29;35;27;16
54587;PMS7003;40484;50.198;19.576;2023-03-14T16:27:32;35;29;18
54587;PMS7003;40484;50.198;19.576;2023-03-14T16:32:34;53;42;24
54587;PMS7003;40484;50.198;19.576;2023-03-14T16:37:36;121;113;74
54587;PMS7003;40484;50.198;19.576;2023-03-14T16:42:38;23;21;15
54587;PMS7003;40484;50.198;19.576;2023-03-14T16:47:39;39;35;21
54587;PMS7003;40484;50.198;19.576;2023-03-14T16:52:41;14;11;8
54587;PMS7003;40484;50.198;19.576;2023-03-14T16:57:44;21;19;14
54587;PMS7003;40484;50.198;19.576;2023-03-14T17:02:46;21;21;17
54587;PMS7003;40484;50.198;19.576;2023-03-14T17:07:48;31;29;20
54587;PMS7003;40484;50.198;19.576;2023-03-14T17:12:49;41;34;23
54587;PMS7003;40484;50.198;19.576;2023-03-14T17:18:17;97;92;56
54587;PMS7003;40484;50.198;19.576;2023-03-14T17:23:18;50;42;27
54587;PMS7003;40484;50.198;19.576;2023-03-14T17:28:21;55;45;28
54587;PMS7003;40484;50.198;19.576;2023-03-14T17:33:24;56;45;31
54587;PMS7003;40484;50.198;19.576;2023-03-14T17:38:25;63;47;30
54587;PMS7003;40484;50.198;19.576;2023-03-14T17:43:27;45;37;24
54587;PMS7003;40484;50.198;19.576;2023-03-14T17:48:29;37;32;22
54587;PMS7003;40484;50.198;19.576;2023-03-14T17:53:30;41;34;24
54587;PMS7003;40484;50.198;19.576;2023-03-14T17:58:32;59;46;29
54587;PMS7003;40484;50.198;19.576;2023-03-14T18:03:36;68;52;32
54587;PMS7003;40484;50.198;19.576;2023-03-14T18:08:38;52;43;30
54587;PMS7003;40484;50.198;19.576;2023-03-14T18:13:44;54;43;28
54587;PMS7003;40484;50.198;19.576;2023-03-14T18:18:46;72;59;36
54587;PMS7003;40484;50.198;19.576;2023-03-14T18:23:49;36;32;22
54587;PMS7003;40484;50.198;19.576;2023-03-14T18:28:51;29;27;18
54587;PMS7003;40484;50.198;19.576;2023-03-14T18:33:54;45;38;25
54587;PMS7003;40484;50.198;19.576;2023-03-14T18:38:57;32;27;18
54587;PMS7003;40484;50.198;19.576;2023-03-14T18:44:00;45;38;25
54587;PMS7003;40484;50.198;19.576;2023-03-14T18:49:02;24;22;16
54587;PMS7003;40484;50.198;19.576;2023-03-14T18:54:29;24;23;16
54587;PMS7003;40484;50.198;19.576;2023-03-14T18:59:30;38;33;20
54587;PMS7003;40484;50.198;19.576;2023-03-14T19:04:32;58;46;31
54587;PMS7003;40484;50.198;19.576;2023-03-14T19:09:33;33;30;19
54587;PMS7003;40484;50.198;19.576;2023-03-14T19:14:35;69;53;35
54587;PMS7003;40484;50.198;19.576;2023-03-14T19:19:37;66;53;35
54587;PMS7003;40484;50.198;19.576;2023-03-14T19:24:39;77;68;40
54587;PMS7003;40484;50.198;19.576;2023-03-14T19:29:41;78;66;39
54587;PMS7003;40484;50.198;19.576;2023-03-14T19:34:42;56;45;28
54587;PMS7003;40484;50.198;19.576;2023-03-14T19:39:44;61;48;31
54587;PMS7003;40484;50.198;19.576;2023-03-14T19:44:46;69;57;35
54587;PMS7003;40484;50.198;19.576;2023-03-14T19:49:48;58;46;29
54587;PMS7003;40484;50.198;19.576;2023-03-14T19:54:49;57;46;28
54587;PMS7003;40484;50.198;19.576;2023-03-14T19:59:51;49;42;27
54587;PMS7003;40484;50.198;19.576;2023-03-14T20:04:53;39;35;22
54587;PMS7003;40484;50.198;19.576;2023-03-14T20:09:54;47;40;27
54587;PMS7003;40484;50.198;19.576;2023-03-14T20:14:56;48;40;26
54587;PMS7003;40484;50.198;19.576;2023-03-14T20:19:58;39;35;23
54587;PMS7003;40484;50.198;19.576;2023-03-14T20:24:59;39;34;21
54587;PMS7003;40484;50.198;19.576;2023-03-14T20:30:01;37;33;23
54587;PMS7003;40484;50.198;19.576;2023-03-14T20:35:05;48;36;23
54587;PMS7003;40484;50.198;19.576;2023-03-14T20:40:33;61;50;33
54587;PMS7003;40484;50.198;19.576;2023-03-14T20:45:34;51;39;26
54587;PMS7003;40484;50.198;19.576;2023-03-14T20:50:36;37;32;22
54587;PMS7003;40484;50.198;19.576;2023-03-14T20:55:38;41;32;22
54587;PMS7003;40484;50.198;19.576;2023-03-14T21:00:40;34;31;21
54587;PMS7003;40484;50.198;19.576;2023-03-14T21:05:49;38;34;23
54587;PMS7003;40484;50.198;19.576;2023-03-14T21:10:52;42;35;23
54587;PMS7003;40484;50.198;19.576;2023-03-14T21:15:57;37;33;22
54587;PMS7003;40484;50.198;19.576;2023-03-14T21:21:01;46;37;23
54587;PMS7003;40484;50.198;19.576;2023-03-14T21:26:02;47;37;24
54587;PMS7003;40484;50.198;19.576;2023-03-14T21:31:05;41;36;23
54587;PMS7003;40484;50.198;19.576;2023-03-14T21:36:07;33;30;20
54587;PMS7003;40484;50.198;19.576;2023-03-14T21:41:09;44;35;23
54587;PMS7003;40484;50.198;19.576;2023-03-14T21:46:11;39;32;21
54587;PMS7003;40484;50.198;19.576;2023-03-14T21:51:13;34;30;20
54587;PMS7003;40484;50.198;19.576;2023-03-14T21:56:16;36;31;22
54587;PMS7003;40484;50.198;19.576;2023-03-14T22:01:18;34;30;20
54587;PMS7003;40484;50.198;19.576;2023-03-14T22:06:20;40;31;20
54587;PMS7003;40484;50.198;19.576;2023-03-14T22:11:49;34;29;18
54587;PMS7003;40484;50.198;19.576;2023-03-14T22:16:50;20;19;15
54587;PMS7003;40484;50.198;19.576;2023-03-14T22:21:53;20;20;15
54587;PMS7003;40484;50.198;19.576;2023-03-14T22:26:54;35;27;18
54587;PMS7003;40484;50.198;19.576;2023-03-14T22:31:56;24;22;15
54587;PMS7003;40484;50.198;19.576;2023-03-14T22:36:57;18;17;13
54587;PMS7003;40484;50.198;19.576;2023-03-14T22:42:00;19;19;12
54587;PMS7003;40484;50.198;19.576;2023-03-14T22:47:02;22;22;14
54587;PMS7003;40484;50.198;19.576;2023-03-14T22:52:04;25;20;13
54587;PMS7003;40484;50.198;19.576;2023-03-14T22:57:05;18;17;12
54587;PMS7003;40484;50.198;19.576;2023-03-14T23:02:07;19;18;13
54587;PMS7003;40484;50.198;19.576;2023-03-14T23:07:09;21;19;13
54587;PMS7003;40484;50.198;19.576;2023-03-14T23:12:10;20;15;12
54587;PMS7003;40484;50.198;19.576;2023-03-14T23:17:14;15;13;10
54587;PMS7003;40484;50.198;19.576;2023-03-14T23:22:15;15;15;12
54587;PMS7003;40484;50.198;19.576;2023-03-14T23:27:20;3;3;2
54587;PMS7003;40484;50.198;19.576;2023-03-14T23:32:21;7;6;5
54587;PMS7003;40484;50.198;19.576;2023-03-14T23:37:22;7;7;4
54587;PMS7003;40484;50.198;19.576;2023-03-14T23:42:25;5;5;4
54587;PMS7003;40484;50.198;19.576;2023-03-14T23:47:27;6;5;4
54587;PMS7003;40484;50.198;19.576;2023-03-14T23:52:57;5;5;4
54587;PMS7003;40484;50.198;19.576;2023-03-14T23:57:59;13;13;8
